CW2798 Aduanas ES current weather conditions

sailwx.info

Wind from 281 at 2 knots gusting 5

Air temperature 21.7° C
Dewpoint 12.2° C

Last reported at 2016-Feb-13 01:45 UTC.
Time now 2016-Feb-13 02:30 UTC

Location: N 38°48' E 000°11'.
View on Google Maps.

See reports from other nearby stations

  
Tides and Currents Weather Stations Pressure Air Temp Water Temp Dewpoint Dewpoint Depression Visibility Wind Speed Wind Dir Waves Ship Positions
date/time (UTC)wind fromknots sea level pressurealtimeterstation pressurevisibilityair tempwater tempwave heightnotes
2016-Feb-13 01:45 281 2 gusting 5 21.7
2016-Feb-13 01:30 274 2 gusting 10 21.7
2016-Feb-13 01:15 270 4 gusting 16 21.7
2016-Feb-13 01:00 334 0 gusting 9 21.7
2016-Feb-13 00:45 268 1 gusting 6 21.7
2016-Feb-13 00:15 21.7
2016-Feb-13 00:00 271 5 gusting 9 21.7
2016-Feb-12 23:15 282 11 gusting 18 21.7
2016-Feb-12 23:00 281 12 gusting 19 21.7
2016-Feb-12 22:30 280 9 gusting 20 21.7
2016-Feb-12 22:00 277 9 gusting 26 21.7
2016-Feb-12 21:45 274 9 gusting 12 21.7
2016-Feb-12 21:00 273 10 gusting 16 21.7
2016-Feb-12 20:45 270 8 gusting 13 21.7
2016-Feb-12 20:30 277 7 gusting 13 21.7
2016-Feb-12 20:15 277 9 gusting 19 22.2
2016-Feb-12 19:45 277 4 gusting 3 20.0
2016-Feb-12 19:15 275 6 gusting 12 22.2
2016-Feb-12 18:45 285 6 gusting 10 22.2
2016-Feb-12 18:30 278 6 gusting 8 21.7
2016-Feb-12 18:15 283 1 gusting 20 21.7
2016-Feb-12 17:45 270 6 gusting 14 22.2
2016-Feb-12 16:45 296 10 gusting 16 22.8
2016-Feb-12 16:00 287 14 gusting 26 22.8
2016-Feb-12 15:15 277 9 gusting 19 22.8
2016-Feb-12 14:45 277 10 gusting 19 22.2
2016-Feb-12 14:00 271 7 gusting 11 19.4
2016-Feb-12 13:45 264 8 gusting 13 19.4
2016-Feb-12 13:15 274 5 gusting 9 20.0
2016-Feb-12 13:00 272 6 gusting 12 20.0
2016-Feb-12 12:30 256 5 gusting 12 20.0
2016-Feb-12 12:00 299 0 gusting 5 20.0
2016-Feb-12 11:30 227 2 gusting 10 18.9
2016-Feb-12 11:15 195 19.4
2016-Feb-12 11:00 19.4
2016-Feb-12 10:00 18.3
2016-Feb-12 09:45 18.3
2016-Feb-12 09:30 17.8
2016-Feb-12 09:00 17.2
2016-Feb-12 07:30 15.6
2016-Feb-12 07:15 16.1
2016-Feb-12 06:15 16.7
2016-Feb-12 05:45 283 6 gusting 17 18.3
2016-Feb-12 05:30 282 6 gusting 12 17.8
2016-Feb-12 05:15 287 4 gusting 11 18.3
2016-Feb-12 04:45 283 17.8
2016-Feb-12 04:00 289 17.8
2016-Feb-12 03:30 283 6 gusting 7 18.3
2016-Feb-12 02:45 270 5 gusting 6 18.3
2016-Feb-12 02:30 273 12 gusting 16 18.3
2016-Feb-12 01:45 284 7 gusting 11 18.3
2016-Feb-12 01:15 289 9 gusting 21 18.9
2016-Feb-12 01:00 283 5 gusting 11 18.3
2016-Feb-12 00:30 278 5 gusting 6 18.3
2016-Feb-12 00:15 273 5 gusting 9 18.3
2016-Feb-11 23:30 276 2 gusting 6 17.2
2016-Feb-11 22:30 263 1 gusting 4 16.7
2016-Feb-11 22:15 258 4 gusting 5 18.3
2016-Feb-11 22:00 263 4 gusting 6 18.3
2016-Feb-11 21:45 265 1 gusting 6 19.4
2016-Feb-11 21:30 271 4 gusting 4 19.4
2016-Feb-11 21:15 290 3 gusting 9 19.4
2016-Feb-11 21:00 305 6 gusting 8 19.4
2016-Feb-11 20:45 291 6 gusting 15 19.4
2016-Feb-11 20:30 290 7 gusting 13 20.0
2016-Feb-11 20:15 276 9 gusting 17 20.0
2016-Feb-11 20:00 288 12 gusting 22 20.0
2016-Feb-11 19:45 274 8 gusting 19 19.4
2016-Feb-11 19:30 270 9 gusting 13 19.4
2016-Feb-11 19:15 270 10 gusting 14 19.4
2016-Feb-11 19:00 272 10 gusting 16 18.9
2016-Feb-11 18:45 270 12 gusting 19 18.9
2016-Feb-11 18:30 274 9 gusting 13 18.3
2016-Feb-11 17:30 270 6 gusting 8 16.7
2016-Feb-11 17:15 292 5 gusting 10 17.8
2016-Feb-11 17:00 294 2 gusting 7 16.7
2016-Feb-11 16:45 274 9 gusting 14 16.1
2016-Feb-11 15:45 287 7 gusting 11 16.7
2016-Feb-11 15:30 295 9 gusting 17 16.1
2016-Feb-11 15:15 348 9 gusting 26 18.9
2016-Feb-11 15:00 278 6 gusting 11 21.1
2016-Feb-11 14:45 279 6 gusting 11 20.6
2016-Feb-11 14:30 274 7 gusting 9 20.6
2016-Feb-11 13:45 272 7 gusting 19 22.2
2016-Feb-11 12:45 267 8 gusting 17 23.3
2016-Feb-11 12:00 271 11 gusting 17 21.7
2016-Feb-11 11:15 273 9 gusting 17 21.1
2016-Feb-11 11:00 272 9 gusting 19 21.1
2016-Feb-11 10:15 270 13 gusting 16 21.1
2016-Feb-11 10:00 273 11 gusting 15 20.6
2016-Feb-11 09:30 270 5 gusting 12 20.6
2016-Feb-11 09:15 261 19.4
2016-Feb-11 09:00 224 0 gusting 4 18.9
2016-Feb-11 08:30 276 4 gusting 6 19.4
2016-Feb-11 08:15 295 6 gusting 13 19.4
2016-Feb-11 08:00 309 3 gusting 7 19.4
2016-Feb-11 07:45 309 4 gusting 10 19.4
2016-Feb-11 07:30 296 2 gusting 11 19.4
2016-Feb-11 07:15 326 2 gusting 10 19.4
2016-Feb-11 06:45 311 5 gusting 7 19.4
2016-Feb-11 06:30 302 5 gusting 8 19.4
2016-Feb-11 06:15 285 4 gusting 11 19.4
2016-Feb-11 05:45 300 6 gusting 11 19.4
2016-Feb-11 05:00 271 12 gusting 19 19.4
2016-Feb-11 04:45 275 14 gusting 25 19.4
2016-Feb-11 04:30 280 12 gusting 20 19.4
2016-Feb-11 04:15 280 10 gusting 19 19.4
2016-Feb-11 04:00 289 13 gusting 20 20.0
2016-Feb-11 03:15 293 13 gusting 21 20.6
2016-Feb-11 03:00 287 10 gusting 23 20.6
2016-Feb-11 02:00 291 13 gusting 20 20.6